createdAt,value
2019-03-28T00:00:28.702Z,21.30
2019-03-28T00:01:06.849Z,25.00
2019-03-28T00:01:40.609Z,20.10
2019-03-28T00:02:16.314Z,19.62
2019-03-28T00:02:50.556Z,19.87
2019-03-28T00:03:24.302Z,23.10
2019-03-28T00:03:58.265Z,25.77
2019-03-28T00:04:32.006Z,22.62
2019-03-28T00:05:05.878Z,21.68
2019-03-28T00:05:39.731Z,21.12
2019-03-28T00:06:13.488Z,21.70
2019-03-28T00:06:47.709Z,23.15
2019-03-28T00:07:24.293Z,25.20
2019-03-28T00:07:58.242Z,22.07
2019-03-28T00:08:31.934Z,25.35
2019-03-28T00:09:07.743Z,22.30
2019-03-28T00:09:41.779Z,22.90
2019-03-28T00:10:15.458Z,24.80
2019-03-28T00:10:49.133Z,20.52
2019-03-28T00:11:22.814Z,24.37
2019-03-28T00:11:56.485Z,19.92
2019-03-28T00:12:30.222Z,21.17
2019-03-28T00:13:03.989Z,23.30
2019-03-28T00:13:37.677Z,22.50
2019-03-28T00:14:11.395Z,22.30
2019-03-28T00:14:45.147Z,26.85
2019-03-28T00:15:18.892Z,22.15
2019-03-28T00:15:52.647Z,22.42
2019-03-28T00:16:26.404Z,25.05
2019-03-28T00:17:00.163Z,19.95
2019-03-28T00:17:33.912Z,24.07
2019-03-28T00:18:07.806Z,22.77
2019-03-28T00:18:41.561Z,23.47
2019-03-28T00:19:15.238Z,21.80
2019-03-28T00:19:48.985Z,24.18
2019-03-28T00:20:22.982Z,22.85
2019-03-28T00:20:56.790Z,25.25
2019-03-28T00:21:30.463Z,24.55
2019-03-28T00:22:05.833Z,21.57
2019-03-28T00:23:05.054Z,23.30
2019-03-28T00:23:53.998Z,20.15
2019-03-28T00:24:31.510Z,23.50
2019-03-28T00:25:08.073Z,22.45
2019-03-28T00:25:41.893Z,25.92
2019-03-28T00:26:15.561Z,21.77
2019-03-28T00:26:49.318Z,22.45
2019-03-28T00:27:22.992Z,22.80
2019-03-28T00:27:56.742Z,24.30
2019-03-28T00:28:30.562Z,24.72
2019-03-28T00:29:04.314Z,26.25
2019-03-28T00:29:37.989Z,21.45
2019-03-28T00:30:12.214Z,23.92
2019-03-28T00:30:45.976Z,23.75
2019-03-28T00:31:19.750Z,27.17
2019-03-28T00:31:53.462Z,24.50
2019-03-28T00:32:27.268Z,24.50
2019-03-28T00:33:00.950Z,24.07
2019-03-28T00:33:34.709Z,25.48
2019-03-28T00:34:08.498Z,23.95
2019-03-28T00:34:42.187Z,25.08
2019-03-28T00:35:15.939Z,24.87
2019-03-28T00:35:49.706Z,24.55
2019-03-28T00:36:23.415Z,24.75
2019-03-28T00:36:57.086Z,25.75
2019-03-28T00:37:30.780Z,25.62
2019-03-28T00:38:04.441Z,24.12
2019-03-28T00:38:38.137Z,25.40
2019-03-28T00:39:12.297Z,24.95
2019-03-28T00:39:45.970Z,24.40
2019-03-28T00:40:19.720Z,27.22
2019-03-28T00:40:53.470Z,23.87
2019-03-28T00:41:27.242Z,22.45
2019-03-28T00:42:00.993Z,23.00
2019-03-28T00:42:35.106Z,26.57
2019-03-28T00:43:09.007Z,19.67
2019-03-28T00:43:42.712Z,22.93
2019-03-28T00:44:16.497Z,25.60
2019-03-28T00:44:50.255Z,25.80
2019-03-28T00:45:24.089Z,27.65
2019-03-28T00:45:57.838Z,23.85
2019-03-28T00:46:31.517Z,27.07
2019-03-28T00:47:05.266Z,24.55
2019-03-28T00:47:38.941Z,22.45
2019-03-28T00:48:12.625Z,24.18
2019-03-28T00:48:47.312Z,24.12
2019-03-28T00:49:21.061Z,23.60
2019-03-28T00:49:54.845Z,25.95
2019-03-28T00:50:28.606Z,24.98
2019-03-28T00:51:02.427Z,22.80
2019-03-28T00:51:36.172Z,24.27
2019-03-28T00:52:09.867Z,26.65
2019-03-28T00:52:43.615Z,21.70
2019-03-28T00:53:17.290Z,25.25
2019-03-28T00:53:51.694Z,21.50
2019-03-28T00:54:25.367Z,24.85
2019-03-28T00:54:59.129Z,22.52
2019-03-28T00:55:32.798Z,20.60
2019-03-28T00:56:06.551Z,20.65
2019-03-28T00:56:46.738Z,22.65
2019-03-28T00:57:15.774Z,22.25
2019-03-28T00:57:49.466Z,20.25
2019-03-28T00:58:23.141Z,20.68
2019-03-28T00:58:56.836Z,22.75
2019-03-28T00:59:30.593Z,19.87
2019-03-28T01:00:04.586Z,22.07
2019-03-28T01:00:38.349Z,23.50
2019-03-28T01:01:12.082Z,22.15
2019-03-28T01:01:45.781Z,22.13
2019-03-28T01:02:19.862Z,23.07
2019-03-28T01:02:53.623Z,22.17
2019-03-28T01:03:27.558Z,21.77
2019-03-28T01:04:01.252Z,28.60
2019-03-28T01:04:35.006Z,21.20
2019-03-28T01:05:09.003Z,22.07
2019-03-28T01:05:42.774Z,20.82
2019-03-28T01:06:16.537Z,22.35
2019-03-28T01:06:50.212Z,20.40
2019-03-28T01:07:24.171Z,23.10
2019-03-28T01:07:57.923Z,23.73
2019-03-28T01:08:31.604Z,24.63
2019-03-28T01:09:07.407Z,22.25
2019-03-28T01:09:41.161Z,20.95
2019-03-28T01:10:14.914Z,23.20
2019-03-28T01:10:48.730Z,23.77
2019-03-28T01:11:22.501Z,24.02
2019-03-28T01:11:56.220Z,22.07
2019-03-28T01:12:29.969Z,22.40
2019-03-28T01:13:03.736Z,23.12
2019-03-28T01:13:37.481Z,20.02
2019-03-28T01:14:11.250Z,21.55
2019-03-28T01:14:45.005Z,20.62
2019-03-28T01:15:19.974Z,20.27
2019-03-28T01:15:53.725Z,22.02
2019-03-28T01:16:27.482Z,21.00
2019-03-28T01:17:01.175Z,21.75
2019-03-28T01:17:35.339Z,22.73
2019-03-28T01:18:09.160Z,23.00
2019-03-28T01:18:42.826Z,23.62
2019-03-28T01:19:16.681Z,19.40
2019-03-28T01:19:50.430Z,22.82
2019-03-28T01:20:24.105Z,20.48
2019-03-28T01:20:57.781Z,20.88
2019-03-28T01:21:31.529Z,19.98
2019-03-28T01:22:06.160Z,25.50
2019-03-28T01:22:40.192Z,23.22
2019-03-28T01:23:13.965Z,21.57
2019-03-28T01:23:47.760Z,18.17
2019-03-28T01:24:21.446Z,20.77
2019-03-28T01:24:57.655Z,22.82
2019-03-28T01:25:30.684Z,19.82
2019-03-28T01:26:04.584Z,21.27
2019-03-28T01:26:38.274Z,19.20
2019-03-28T01:27:12.024Z,22.93
2019-03-28T01:27:45.779Z,19.92
2019-03-28T01:28:19.524Z,18.60
2019-03-28T01:28:53.205Z,20.12
2019-03-28T01:29:26.986Z,19.10
2019-03-28T01:30:00.741Z,22.35
2019-03-28T01:30:34.494Z,20.48
2019-03-28T01:31:08.247Z,21.27
2019-03-28T01:31:41.938Z,20.62
2019-03-28T01:32:15.687Z,24.20
2019-03-28T01:32:49.373Z,20.30
2019-03-28T01:33:23.121Z,21.35
2019-03-28T01:33:56.794Z,22.93
2019-03-28T01:34:30.874Z,21.07
2019-03-28T01:35:04.878Z,21.97
2019-03-28T01:35:38.552Z,20.00
2019-03-28T01:36:13.112Z,22.15
2019-03-28T01:36:46.973Z,21.50
2019-03-28T01:37:20.656Z,17.77
2019-03-28T01:37:54.497Z,23.05
2019-03-28T01:38:28.278Z,21.52
2019-03-28T01:39:02.109Z,22.90
2019-03-28T01:39:36.775Z,21.30
2019-03-28T01:40:10.535Z,24.40
2019-03-28T01:40:44.339Z,21.80
2019-03-28T01:41:18.094Z,20.12
2019-03-28T01:41:51.849Z,20.95
2019-03-28T01:42:25.606Z,24.07
2019-03-28T01:42:59.373Z,22.93
2019-03-28T01:43:33.144Z,22.42
2019-03-28T01:44:06.833Z,22.07
2019-03-28T01:44:41.291Z,23.27
2019-03-28T01:45:15.054Z,19.62
2019-03-28T01:45:48.714Z,22.65
2019-03-28T01:46:22.381Z,21.35
2019-03-28T01:46:56.130Z,19.42
2019-03-28T01:47:29.895Z,23.62
2019-03-28T01:48:03.674Z,20.88
2019-03-28T01:48:37.429Z,21.95
2019-03-28T01:49:11.180Z,23.12
2019-03-28T01:49:44.905Z,23.07
2019-03-28T01:50:18.698Z,25.25
2019-03-28T01:50:52.391Z,23.18
2019-03-28T01:51:26.137Z,23.77
2019-03-28T01:51:59.892Z,22.65
2019-03-28T01:52:33.657Z,26.85
2019-03-28T01:53:07.418Z,27.80
2019-03-28T01:53:41.177Z,24.98
2019-03-28T01:54:14.854Z,27.07
2019-03-28T01:54:49.477Z,25.05
2019-03-28T01:55:23.300Z,28.05
2019-03-28T01:55:57.005Z,22.32
2019-03-28T01:56:30.776Z,25.45
2019-03-28T01:57:10.971Z,24.72
2019-03-28T01:57:39.922Z,22.07
2019-03-28T01:58:13.593Z,25.27
2019-03-28T01:58:47.378Z,30.37
2019-03-28T01:59:21.291Z,24.82
2019-03-28T01:59:55.142Z,26.25
2019-03-28T02:00:29.001Z,26.52
2019-03-28T02:01:03.018Z,25.00
2019-03-28T02:01:36.834Z,25.35
2019-03-28T02:02:10.519Z,24.30
2019-03-28T02:02:44.335Z,20.27
2019-03-28T02:03:18.098Z,23.20
2019-03-28T02:03:51.782Z,23.35
2019-03-28T02:04:25.538Z,26.07
2019-03-28T02:04:59.320Z,24.55
2019-03-28T02:05:33.114Z,23.65
2019-03-28T02:06:06.865Z,22.42
2019-03-28T02:06:40.634Z,21.25
2019-03-28T02:07:14.375Z,27.95
2019-03-28T02:07:48.062Z,26.70
2019-03-28T02:08:24.657Z,23.40
2019-03-28T02:08:57.322Z,24.07
2019-03-28T02:09:31.040Z,24.57
2019-03-28T02:10:05.177Z,26.10
2019-03-28T02:10:38.948Z,22.85
2019-03-28T02:11:12.625Z,24.02
2019-03-28T02:11:46.386Z,21.82
2019-03-28T02:12:20.178Z,23.32
2019-03-28T02:12:53.934Z,23.62
2019-03-28T02:13:27.705Z,22.35
2019-03-28T02:14:01.380Z,23.12
2019-03-28T02:14:35.073Z,25.57
2019-03-28T02:15:09.266Z,24.05
2019-03-28T02:15:42.940Z,23.90
2019-03-28T02:16:16.820Z,23.15
2019-03-28T02:16:50.493Z,26.48
2019-03-28T02:17:24.159Z,23.02
2019-03-28T02:17:57.850Z,21.55
2019-03-28T02:18:31.526Z,22.10
2019-03-28T02:19:05.285Z,22.77
2019-03-28T02:19:39.338Z,25.23
2019-03-28T02:20:13.167Z,21.97
2019-03-28T02:20:46.857Z,19.25
2019-03-28T02:21:20.830Z,22.10
2019-03-28T02:21:54.602Z,22.07
2019-03-28T02:22:28.366Z,24.40
2019-03-28T02:23:02.143Z,20.57
2019-03-28T02:23:36.253Z,24.63
2019-03-28T02:24:10.157Z,24.63
2019-03-28T02:24:43.859Z,21.45
2019-03-28T02:25:17.863Z,22.32
2019-03-28T02:25:51.618Z,24.32
2019-03-28T02:26:25.309Z,25.23
2019-03-28T02:26:59.431Z,25.48
2019-03-28T02:27:33.364Z,21.95
2019-03-28T02:28:07.198Z,20.55
2019-03-28T02:28:41.170Z,25.80
2019-03-28T02:29:15.126Z,21.33
2019-03-28T02:29:48.867Z,20.27
2019-03-28T02:30:31.383Z,22.95
2019-03-28T02:31:05.222Z,19.20
2019-03-28T02:31:38.932Z,20.15
2019-03-28T02:32:12.682Z,21.00
2019-03-28T02:32:46.451Z,25.02
2019-03-28T02:33:20.230Z,21.42
2019-03-28T02:33:54.006Z,23.50
2019-03-28T02:34:27.773Z,23.10
2019-03-28T02:35:01.477Z,20.32
2019-03-28T02:35:35.251Z,22.37
2019-03-28T02:36:09.064Z,23.47
2019-03-28T02:36:42.758Z,22.22
2019-03-28T02:37:16.457Z,25.45
2019-03-28T02:37:50.219Z,23.30
2019-03-28T02:38:23.976Z,21.45
2019-03-28T02:38:58.583Z,22.15
2019-03-28T02:39:32.615Z,24.92
2019-03-28T02:40:06.841Z,18.85
2019-03-28T02:40:40.879Z,21.20
2019-03-28T02:41:14.592Z,24.43
2019-03-28T02:41:48.506Z,22.60
2019-03-28T02:42:22.268Z,19.75
2019-03-28T02:42:56.014Z,17.77
2019-03-28T02:43:29.766Z,22.60
2019-03-28T02:44:03.531Z,21.90
2019-03-28T02:44:37.603Z,25.30
2019-03-28T02:45:11.883Z,18.10
2019-03-28T02:45:45.634Z,19.75
2019-03-28T02:46:19.319Z,21.27
2019-03-28T02:46:53.092Z,24.32
2019-03-28T02:47:26.939Z,21.70
2019-03-28T02:48:01.665Z,20.82
2019-03-28T02:48:35.852Z,19.30
2019-03-28T02:49:09.610Z,23.02
2019-03-28T02:49:43.373Z,18.35
2019-03-28T02:50:17.106Z,20.97
2019-03-28T02:50:50.853Z,22.80
2019-03-28T02:51:24.558Z,20.00
2019-03-28T02:51:58.339Z,20.37
2019-03-28T02:52:32.102Z,21.20
2019-03-28T02:53:05.861Z,17.75
2019-03-28T02:53:39.830Z,20.88
2019-03-28T02:54:13.790Z,18.77
2019-03-28T02:54:47.479Z,18.55
2019-03-28T02:55:21.257Z,20.65
2019-03-28T02:55:55.006Z,18.80
2019-03-28T02:56:28.710Z,20.08
2019-03-28T02:57:02.467Z,21.52
2019-03-28T02:57:41.478Z,23.25
2019-03-28T02:58:11.642Z,16.80
2019-03-28T02:58:45.409Z,18.67
2019-03-28T02:59:19.126Z,20.75
2019-03-28T02:59:52.928Z,17.35
2019-03-28T03:00:26.891Z,17.32
2019-03-28T03:01:00.731Z,21.75
2019-03-28T03:01:34.502Z,21.25
2019-03-28T03:02:08.503Z,21.15
2019-03-28T03:02:42.344Z,16.35
2019-03-28T03:03:16.050Z,16.80
2019-03-28T03:03:49.747Z,20.12
2019-03-28T03:04:23.425Z,17.92
2019-03-28T03:04:57.203Z,19.52
2019-03-28T03:05:30.987Z,16.25
2019-03-28T03:06:04.773Z,18.92
2019-03-28T03:06:38.449Z,17.82
2019-03-28T03:07:12.220Z,17.75
2019-03-28T03:07:45.975Z,15.88
2019-03-28T03:08:19.693Z,19.82
2019-03-28T03:08:53.628Z,18.52
2019-03-28T03:09:27.462Z,19.15
2019-03-28T03:10:01.160Z,16.67
2019-03-28T03:10:34.929Z,15.78
2019-03-28T03:11:09.557Z,16.73
2019-03-28T03:11:43.653Z,17.37
2019-03-28T03:12:17.532Z,22.55
2019-03-28T03:12:51.296Z,16.50
2019-03-28T03:13:24.981Z,17.10
2019-03-28T03:13:58.749Z,18.52
2019-03-28T03:14:32.522Z,18.42
2019-03-28T03:15:06.389Z,15.43
2019-03-28T03:15:40.171Z,16.75
2019-03-28T03:16:13.931Z,17.23
2019-03-28T03:16:48.824Z,16.87
2019-03-28T03:17:23.108Z,17.62
2019-03-28T03:17:56.863Z,18.37
2019-03-28T03:18:30.558Z,21.10
2019-03-28T03:19:04.310Z,16.55
2019-03-28T03:19:38.067Z,17.87
2019-03-28T03:20:12.266Z,15.63
2019-03-28T03:20:46.039Z,16.37
2019-03-28T03:21:19.714Z,20.25
2019-03-28T03:21:53.505Z,19.67
2019-03-28T03:22:27.197Z,18.25
2019-03-28T03:23:00.969Z,18.55
2019-03-28T03:23:34.802Z,13.85
2019-03-28T03:24:08.674Z,17.35
2019-03-28T03:24:42.361Z,16.80
2019-03-28T03:25:16.133Z,16.27
2019-03-28T03:25:49.909Z,15.03
2019-03-28T03:26:23.678Z,16.07
2019-03-28T03:26:57.434Z,18.92
2019-03-28T03:27:31.214Z,18.65
2019-03-28T03:28:04.961Z,17.00
2019-03-28T03:28:38.650Z,17.48
2019-03-28T03:29:12.412Z,18.67
2019-03-28T03:29:46.173Z,18.45
2019-03-28T03:30:20.015Z,17.07
2019-03-28T03:30:53.862Z,16.52
2019-03-28T03:31:27.541Z,14.40
2019-03-28T03:32:01.357Z,16.07
2019-03-28T03:32:35.414Z,16.97
2019-03-28T03:33:09.564Z,18.42
2019-03-28T03:33:43.525Z,19.77
2019-03-28T03:34:17.372Z,17.82
2019-03-28T03:34:51.145Z,16.37
2019-03-28T03:35:24.846Z,17.10
2019-03-28T03:35:59.370Z,16.62
2019-03-28T03:36:33.129Z,16.32
2019-03-28T03:37:06.814Z,19.12
2019-03-28T03:37:40.525Z,19.05
2019-03-28T03:38:14.275Z,24.45
2019-03-28T03:38:48.074Z,15.68
2019-03-28T03:39:21.878Z,16.73
2019-03-28T03:39:55.560Z,16.40
2019-03-28T03:40:29.353Z,15.38
2019-03-28T03:41:03.283Z,21.30
2019-03-28T03:41:37.030Z,18.65
2019-03-28T03:42:11.170Z,15.75
2019-03-28T03:42:44.931Z,16.95
2019-03-28T03:43:18.727Z,19.02
2019-03-28T03:43:52.475Z,18.50
2019-03-28T03:44:26.419Z,14.75
2019-03-28T03:45:00.556Z,17.55
2019-03-28T03:45:35.586Z,16.85
2019-03-28T03:46:09.747Z,18.62
2019-03-28T03:46:43.422Z,17.62
2019-03-28T03:47:17.175Z,17.17
2019-03-28T03:47:50.865Z,16.48
2019-03-28T03:48:24.614Z,18.42
2019-03-28T03:48:58.375Z,14.58
2019-03-28T03:49:32.094Z,14.33
2019-03-28T03:50:07.669Z,16.32
2019-03-28T03:50:41.624Z,20.05
2019-03-28T03:51:15.395Z,19.17
2019-03-28T03:51:49.156Z,17.90
2019-03-28T03:52:22.865Z,14.73
2019-03-28T03:52:56.675Z,18.02
2019-03-28T03:53:30.427Z,16.02
2019-03-28T03:54:04.188Z,16.77
2019-03-28T03:54:38.043Z,14.60
2019-03-28T03:55:11.729Z,19.27
2019-03-28T03:55:45.490Z,15.38
2019-03-28T03:56:19.213Z,15.00
2019-03-28T03:56:52.978Z,15.20
2019-03-28T03:57:26.737Z,16.87
2019-03-28T03:58:14.463Z,14.60
2019-03-28T03:58:36.059Z,15.95
2019-03-28T03:59:09.924Z,15.53
2019-03-28T03:59:43.675Z,17.48
2019-03-28T04:00:19.223Z,16.87
2019-03-28T04:00:52.973Z,15.40
2019-03-28T04:01:26.663Z,16.48
2019-03-28T04:02:00.355Z,17.52
2019-03-28T04:02:34.030Z,16.60
2019-03-28T04:03:07.844Z,17.52
2019-03-28T04:03:41.593Z,14.63
2019-03-28T04:04:15.339Z,15.80
2019-03-28T04:04:49.030Z,14.63
2019-03-28T04:05:22.728Z,15.25
2019-03-28T04:05:56.423Z,17.42
2019-03-28T04:06:30.819Z,16.97
2019-03-28T04:07:04.582Z,16.05
2019-03-28T04:07:38.403Z,18.45
2019-03-28T04:08:12.078Z,23.02
2019-03-28T04:08:45.819Z,15.00
2019-03-28T04:09:19.574Z,14.73
2019-03-28T04:09:53.325Z,15.13
2019-03-28T04:10:27.116Z,14.53
2019-03-28T04:11:00.874Z,15.20
2019-03-28T04:11:34.653Z,17.32
2019-03-28T04:12:08.411Z,18.52
2019-03-28T04:12:42.098Z,17.65
2019-03-28T04:13:15.790Z,15.50
2019-03-28T04:13:49.556Z,13.58
2019-03-28T04:14:23.253Z,19.95
2019-03-28T04:14:56.936Z,16.93
2019-03-28T04:15:30.695Z,16.80
2019-03-28T04:16:04.472Z,21.20
2019-03-28T04:16:38.893Z,14.25
2019-03-28T04:17:12.655Z,17.67
2019-03-28T04:17:47.174Z,14.65
2019-03-28T04:18:22.231Z,17.27
2019-03-28T04:18:56.197Z,15.20
2019-03-28T04:19:29.957Z,14.20
2019-03-28T04:20:03.973Z,14.80
2019-03-28T04:20:37.735Z,13.70
2019-03-28T04:21:11.506Z,15.32
2019-03-28T04:21:45.932Z,14.23
2019-03-28T04:22:19.694Z,14.23
2019-03-28T04:22:53.406Z,12.58
2019-03-28T04:23:27.168Z,12.73
2019-03-28T04:24:00.939Z,13.38
2019-03-28T04:24:34.706Z,17.25
2019-03-28T04:25:08.489Z,14.53
2019-03-28T04:25:42.249Z,13.00
2019-03-28T04:26:15.943Z,14.58
2019-03-28T04:26:49.645Z,14.90
2019-03-28T04:27:23.323Z,14.38
2019-03-28T04:27:57.003Z,15.50
2019-03-28T04:28:32.676Z,12.13
2019-03-28T04:29:06.226Z,14.60
2019-03-28T04:29:40.063Z,15.25
2019-03-28T04:30:14.039Z,16.80
2019-03-28T04:30:47.743Z,16.95
2019-03-28T04:31:21.565Z,13.48
2019-03-28T04:31:55.333Z,12.65
2019-03-28T04:32:29.010Z,13.58
2019-03-28T04:33:02.680Z,16.00
2019-03-28T04:33:36.357Z,14.68
2019-03-28T04:34:10.114Z,13.48
2019-03-28T04:34:43.865Z,13.95
2019-03-28T04:35:17.595Z,14.07
2019-03-28T04:35:51.365Z,12.43
2019-03-28T04:36:25.116Z,14.05
2019-03-28T04:36:59.810Z,12.60
2019-03-28T04:37:33.570Z,13.20
2019-03-28T04:38:07.243Z,16.27
2019-03-28T04:38:40.930Z,13.93
2019-03-28T04:39:14.698Z,13.32
2019-03-28T04:39:48.378Z,13.25
2019-03-28T04:40:22.138Z,13.72
2019-03-28T04:40:56.094Z,14.43
2019-03-28T04:41:29.782Z,12.47
2019-03-28T04:42:03.561Z,14.05
2019-03-28T04:42:37.263Z,13.68
2019-03-28T04:43:11.142Z,14.68
2019-03-28T04:43:44.915Z,14.43
2019-03-28T04:44:18.675Z,13.00
2019-03-28T04:44:52.461Z,14.33
2019-03-28T04:45:26.199Z,13.50
2019-03-28T04:45:59.950Z,14.47
2019-03-28T04:46:33.621Z,14.90
2019-03-28T04:47:08.189Z,14.63
2019-03-28T04:47:41.945Z,13.68
2019-03-28T04:48:15.702Z,13.00
2019-03-28T04:48:50.702Z,14.35
2019-03-28T04:49:24.651Z,14.07
2019-03-28T04:49:58.346Z,15.00
2019-03-28T04:50:32.462Z,15.05
2019-03-28T04:51:06.141Z,13.50
2019-03-28T04:51:39.931Z,14.05
2019-03-28T04:52:14.267Z,14.07
2019-03-28T04:52:47.942Z,13.38
2019-03-28T04:53:21.625Z,14.10
2019-03-28T04:53:56.476Z,14.03
2019-03-28T04:54:30.601Z,13.90
2019-03-28T04:55:04.671Z,13.25
2019-03-28T04:55:38.353Z,14.38
2019-03-28T04:56:12.508Z,12.85
2019-03-28T04:56:46.489Z,12.05
2019-03-28T04:57:20.175Z,13.70
2019-03-28T04:57:54.115Z,14.33
2019-03-28T04:58:27.786Z,14.23
2019-03-28T04:59:01.472Z,9.55
2019-03-28T04:59:35.239Z,14.20
2019-03-28T05:00:10.180Z,13.83
2019-03-28T05:00:44.129Z,11.38
2019-03-28T05:01:17.875Z,13.68
2019-03-28T05:02:01.267Z,12.37
2019-03-28T05:02:27.467Z,14.45
2019-03-28T05:03:01.240Z,11.63
2019-03-28T05:03:35.036Z,13.58
2019-03-28T05:04:08.799Z,14.33
2019-03-28T05:04:42.531Z,11.90
2019-03-28T05:05:16.286Z,14.73
2019-03-28T05:05:50.060Z,14.35
2019-03-28T05:06:24.306Z,13.13
2019-03-28T05:06:58.143Z,14.38
2019-03-28T05:07:31.829Z,14.87
2019-03-28T05:08:05.595Z,10.32
2019-03-28T05:08:39.281Z,12.68
2019-03-28T05:09:13.025Z,13.60
2019-03-28T05:09:46.711Z,13.45
2019-03-28T05:10:20.473Z,13.83
2019-03-28T05:10:54.167Z,16.95
2019-03-28T05:11:27.834Z,13.70
2019-03-28T05:12:01.588Z,13.28
2019-03-28T05:12:35.278Z,13.30
2019-03-28T05:13:09.061Z,12.58
2019-03-28T05:13:42.810Z,16.97
2019-03-28T05:14:16.619Z,11.83
2019-03-28T05:14:50.291Z,14.20
2019-03-28T05:15:24.035Z,13.55
2019-03-28T05:15:57.797Z,12.33
2019-03-28T05:16:31.474Z,13.55
2019-03-28T05:17:05.216Z,11.90
2019-03-28T05:17:39.014Z,13.30
2019-03-28T05:18:12.781Z,13.98
2019-03-28T05:18:46.518Z,14.90
2019-03-28T05:19:20.323Z,15.40
2019-03-28T05:19:54.098Z,12.80
2019-03-28T05:20:27.856Z,14.55
2019-03-28T05:21:01.552Z,12.85
2019-03-28T05:21:35.369Z,11.18
2019-03-28T05:22:09.086Z,13.70
2019-03-28T05:22:42.898Z,16.23
2019-03-28T05:23:16.702Z,13.72
2019-03-28T05:23:50.450Z,14.15
2019-03-28T05:24:25.575Z,14.85
2019-03-28T05:24:59.611Z,11.95
2019-03-28T05:25:33.349Z,12.68
2019-03-28T05:26:07.055Z,13.08
2019-03-28T05:26:41.297Z,14.58
2019-03-28T05:27:16.620Z,16.73
2019-03-28T05:27:50.673Z,14.50
2019-03-28T05:28:25.427Z,14.98
2019-03-28T05:28:59.491Z,15.58
2019-03-28T05:29:33.471Z,14.25
2019-03-28T05:30:07.572Z,13.58
2019-03-28T05:30:41.238Z,12.50
2019-03-28T05:31:15.010Z,14.18
2019-03-28T05:31:48.675Z,13.05
2019-03-28T05:32:22.494Z,18.32
2019-03-28T05:32:57.018Z,15.65
2019-03-28T05:33:30.793Z,14.53
2019-03-28T05:34:04.561Z,13.50
2019-03-28T05:34:38.242Z,15.45
2019-03-28T05:35:12.089Z,17.05
2019-03-28T05:35:45.867Z,13.50
2019-03-28T05:36:19.647Z,15.23
2019-03-28T05:36:53.417Z,13.05
2019-03-28T05:37:27.170Z,15.68
2019-03-28T05:38:00.894Z,14.00
2019-03-28T05:38:34.650Z,16.77
2019-03-28T05:39:08.401Z,13.28
2019-03-28T05:39:42.104Z,17.27
2019-03-28T05:40:15.849Z,15.30
2019-03-28T05:40:49.607Z,14.60
2019-03-28T05:41:23.471Z,16.20
2019-03-28T05:41:57.241Z,15.83
2019-03-28T05:42:30.996Z,15.40
2019-03-28T05:43:05.526Z,17.12
2019-03-28T05:43:39.305Z,17.60
2019-03-28T05:44:13.078Z,14.50
2019-03-28T05:44:46.840Z,17.82
2019-03-28T05:45:20.689Z,14.05
2019-03-28T05:45:54.409Z,13.93
2019-03-28T05:46:28.061Z,12.80
2019-03-28T05:47:01.812Z,18.25
2019-03-28T05:47:35.577Z,16.87
2019-03-28T05:48:10.420Z,16.67
2019-03-28T05:48:44.193Z,20.52
2019-03-28T05:49:17.872Z,16.27
2019-03-28T05:49:51.694Z,14.98
2019-03-28T05:50:25.526Z,14.63
2019-03-28T05:50:59.237Z,14.05
2019-03-28T05:51:32.986Z,14.95
2019-03-28T05:52:06.753Z,15.85
2019-03-28T05:52:40.502Z,14.40
2019-03-28T05:53:14.420Z,18.07
2019-03-28T05:53:48.178Z,20.90
2019-03-28T05:54:21.933Z,17.50
2019-03-28T05:54:55.618Z,17.75
2019-03-28T05:55:29.381Z,16.35
2019-03-28T05:56:03.070Z,16.05
2019-03-28T05:56:36.758Z,16.27
2019-03-28T05:57:10.521Z,17.75
2019-03-28T05:57:44.319Z,16.67
2019-03-28T05:58:18.110Z,19.42
2019-03-28T05:58:51.859Z,18.40
2019-03-28T05:59:25.630Z,16.73
2019-03-28T05:59:59.382Z,17.07
2019-03-28T06:00:33.137Z,15.75
2019-03-28T06:01:06.892Z,16.10
2019-03-28T06:01:40.605Z,18.42
2019-03-28T06:02:14.351Z,17.57
2019-03-28T06:02:48.139Z,15.05
2019-03-28T06:03:21.918Z,16.10
2019-03-28T06:03:55.674Z,16.87
2019-03-28T06:04:29.354Z,15.15
2019-03-28T06:05:03.121Z,16.07
2019-03-28T06:05:36.817Z,15.32
2019-03-28T06:06:10.493Z,15.83
2019-03-28T06:06:44.341Z,15.58
2019-03-28T06:07:18.226Z,16.37
2019-03-28T06:07:51.970Z,14.80
2019-03-28T06:08:26.774Z,15.05
2019-03-28T06:09:00.526Z,13.40
2019-03-28T06:09:34.290Z,17.70
2019-03-28T06:10:09.131Z,13.80
2019-03-28T06:10:42.831Z,15.10
2019-03-28T06:11:16.511Z,16.87
2019-03-28T06:11:52.879Z,15.53
2019-03-28T06:12:25.693Z,14.60
2019-03-28T06:12:59.427Z,16.45
2019-03-28T06:13:33.820Z,21.80
2019-03-28T06:14:07.562Z,19.37
2019-03-28T06:14:41.311Z,19.05
2019-03-28T06:15:15.088Z,17.87
2019-03-28T06:15:48.854Z,15.60
2019-03-28T06:16:22.610Z,18.57
2019-03-28T06:16:56.293Z,18.98
2019-03-28T06:17:29.993Z,15.35
2019-03-28T06:18:03.784Z,16.75
2019-03-28T06:18:37.653Z,15.85
2019-03-28T06:19:12.347Z,19.98
2019-03-28T06:19:46.173Z,20.77
2019-03-28T06:20:19.954Z,17.65
2019-03-28T06:20:53.750Z,17.85
2019-03-28T06:21:27.433Z,16.60
2019-03-28T06:22:01.206Z,24.05
2019-03-28T06:22:34.956Z,19.30
2019-03-28T06:23:08.725Z,19.32
2019-03-28T06:23:42.514Z,18.17
2019-03-28T06:24:16.250Z,17.70
2019-03-28T06:24:49.954Z,15.85
2019-03-28T06:25:23.651Z,19.57
2019-03-28T06:25:57.436Z,17.37
2019-03-28T06:26:31.132Z,21.65
2019-03-28T06:27:04.882Z,19.45
2019-03-28T06:27:38.569Z,18.17
2019-03-28T06:28:12.365Z,17.77
2019-03-28T06:28:46.181Z,21.42
2019-03-28T06:29:23.992Z,18.35
2019-03-28T06:29:55.541Z,17.75
2019-03-28T06:30:29.307Z,18.65
2019-03-28T06:31:03.069Z,20.77
2019-03-28T06:31:36.836Z,18.42
2019-03-28T06:32:10.593Z,17.50
2019-03-28T06:32:44.278Z,17.70
2019-03-28T06:33:18.053Z,17.52
2019-03-28T06:33:51.869Z,18.12
2019-03-28T06:34:26.469Z,18.35
2019-03-28T06:35:00.441Z,19.70
2019-03-28T06:35:34.276Z,19.17
2019-03-28T06:36:08.016Z,18.55
2019-03-28T06:36:41.691Z,18.82
2019-03-28T06:37:15.366Z,20.23
2019-03-28T06:37:51.427Z,20.35
2019-03-28T06:38:24.530Z,19.00
2019-03-28T06:38:58.228Z,22.70
2019-03-28T06:39:31.929Z,20.35
2019-03-28T06:40:06.002Z,21.80
2019-03-28T06:40:39.674Z,20.20
2019-03-28T06:41:13.434Z,17.95
2019-03-28T06:41:47.349Z,21.55
2019-03-28T06:42:22.241Z,18.45
2019-03-28T06:42:56.094Z,21.27
2019-03-28T06:43:29.766Z,19.62
2019-03-28T06:44:03.549Z,20.10
2019-03-28T06:44:37.310Z,20.80
2019-03-28T06:45:11.093Z,20.23
2019-03-28T06:45:44.854Z,22.73
2019-03-28T06:46:18.620Z,18.45
2019-03-28T06:46:52.377Z,23.12
2019-03-28T06:47:26.134Z,18.32
2019-03-28T06:47:59.815Z,21.37
2019-03-28T06:48:33.504Z,21.07
2019-03-28T06:49:07.225Z,20.43
2019-03-28T06:49:40.901Z,19.60
2019-03-28T06:50:14.666Z,21.12
2019-03-28T06:50:48.356Z,20.88
2019-03-28T06:51:22.121Z,19.82
2019-03-28T06:51:55.878Z,20.97
2019-03-28T06:52:29.636Z,21.80
2019-03-28T06:53:03.399Z,25.20
2019-03-28T06:53:37.165Z,20.45
2019-03-28T06:54:10.953Z,25.00
2019-03-28T06:54:44.749Z,20.60
2019-03-28T06:55:18.531Z,23.52
2019-03-28T06:55:52.873Z,21.75
2019-03-28T06:56:26.634Z,21.93
2019-03-28T06:57:00.305Z,20.77
2019-03-28T06:57:33.986Z,20.00
2019-03-28T06:58:07.666Z,20.05
2019-03-28T06:58:41.339Z,20.00
2019-03-28T06:59:15.138Z,22.45
2019-03-28T06:59:49.003Z,22.25
2019-03-28T07:00:22.748Z,22.30
2019-03-28T07:00:56.581Z,20.23
2019-03-28T07:01:30.347Z,17.30
2019-03-28T07:02:04.490Z,21.65
2019-03-28T07:02:38.430Z,18.57
2019-03-28T07:03:12.922Z,17.87
2019-03-28T07:03:47.479Z,20.45
2019-03-28T07:04:22.133Z,20.95
2019-03-28T07:04:56.417Z,20.10
2019-03-28T07:05:30.354Z,19.23
2019-03-28T07:06:04.100Z,21.62
2019-03-28T07:06:38.051Z,22.32
2019-03-28T07:07:11.932Z,20.40
2019-03-28T07:07:45.626Z,24.57
2019-03-28T07:08:19.426Z,23.35
2019-03-28T07:08:53.210Z,20.97
2019-03-28T07:09:27.592Z,22.48
2019-03-28T07:10:02.620Z,21.10
2019-03-28T07:10:36.809Z,21.85
2019-03-28T07:11:10.485Z,26.62
2019-03-28T07:11:44.225Z,21.95
2019-03-28T07:12:18.478Z,24.90
2019-03-28T07:12:52.367Z,23.15
2019-03-28T07:13:26.146Z,25.32
2019-03-28T07:13:59.810Z,25.27
2019-03-28T07:14:33.532Z,22.77
2019-03-28T07:15:07.486Z,25.57
2019-03-28T07:15:41.180Z,22.30
2019-03-28T07:16:14.956Z,20.57
2019-03-28T07:16:48.769Z,19.02
2019-03-28T07:17:22.550Z,22.70